createdAt,value
2022-08-07T00:02:40.559Z,9.83
2022-08-07T00:04:41.468Z,9.33
2022-08-07T00:07:09.592Z,8.60
2022-08-07T00:09:35.570Z,8.27
2022-08-07T00:11:58.945Z,8.30
2022-08-07T00:14:22.354Z,9.33
2022-08-07T00:16:47.588Z,10.77
2022-08-07T00:19:09.403Z,9.17
2022-08-07T00:21:57.026Z,10.10
2022-08-07T00:24:23.790Z,9.50
2022-08-07T00:26:59.417Z,13.70
2022-08-07T00:29:31.482Z,10.07
2022-08-07T00:31:55.190Z,9.07
2022-08-07T00:34:17.318Z,9.90
2022-08-07T00:36:44.742Z,10.83
2022-08-07T00:39:06.873Z,10.90
2022-08-07T00:41:37.256Z,10.30
2022-08-07T00:44:07.272Z,11.23
2022-08-07T00:46:34.136Z,12.10
2022-08-07T00:48:56.406Z,11.30
2022-08-07T00:51:23.960Z,11.73
2022-08-07T00:53:55.216Z,12.73
2022-08-07T00:56:17.914Z,12.30
2022-08-07T00:58:46.932Z,11.17
2022-08-07T01:01:10.027Z,11.10
2022-08-07T01:03:55.864Z,11.57
2022-08-07T01:06:17.310Z,12.93
2022-08-07T01:08:43.295Z,10.97
2022-08-07T01:12:27.670Z,10.47
2022-08-07T01:13:59.355Z,14.50
2022-08-07T01:16:30.333Z,13.87
2022-08-07T01:18:55.430Z,14.13
2022-08-07T01:21:24.370Z,14.27
2022-08-07T01:23:50.849Z,13.30
2022-08-07T01:26:16.691Z,15.00
2022-08-07T01:28:46.361Z,14.00
2022-08-07T01:31:17.932Z,11.90
2022-08-07T01:33:56.096Z,15.43
2022-08-07T01:36:31.080Z,12.70
2022-08-07T01:38:59.196Z,12.87
2022-08-07T01:41:26.225Z,11.60
2022-08-07T01:43:51.715Z,11.70
2022-08-07T01:46:15.969Z,15.13
2022-08-07T01:48:46.837Z,15.93
2022-08-07T01:52:01.087Z,14.13
2022-08-07T01:54:09.328Z,12.27
2022-08-07T01:56:39.970Z,13.60
2022-08-07T01:59:08.950Z,12.40
2022-08-07T02:01:59.829Z,14.23
2022-08-07T02:04:30.353Z,12.13
2022-08-07T02:10:44.406Z,14.97
2022-08-07T02:13:46.968Z,15.30
2022-08-07T02:16:12.351Z,14.53
2022-08-07T02:18:38.611Z,16.13
2022-08-07T02:21:09.830Z,17.87
2022-08-07T02:24:05.977Z,14.67
2022-08-07T02:26:34.713Z,13.83
2022-08-07T02:29:03.215Z,16.07
2022-08-07T02:31:28.718Z,16.37
2022-08-07T02:34:03.950Z,16.00
2022-08-07T02:36:39.008Z,15.87
2022-08-07T02:39:15.961Z,16.73
2022-08-07T02:41:40.456Z,17.47
2022-08-07T02:44:14.526Z,16.97
2022-08-07T02:46:46.864Z,17.17
2022-08-07T02:49:28.799Z,16.23
2022-08-07T02:51:59.944Z,14.63
2022-08-07T02:54:26.865Z,16.13
2022-08-07T02:56:49.702Z,18.20
2022-08-07T02:59:17.890Z,16.93
2022-08-07T03:01:51.977Z,16.53
2022-08-07T03:04:16.526Z,14.13
2022-08-07T03:06:40.310Z,16.50
2022-08-07T03:09:03.368Z,18.57
2022-08-07T03:11:25.512Z,18.93
2022-08-07T03:13:51.498Z,15.33
2022-08-07T03:16:23.066Z,20.20
2022-08-07T03:18:50.422Z,16.87
2022-08-07T03:21:12.696Z,15.77
2022-08-07T03:24:18.359Z,14.83
2022-08-07T03:26:30.946Z,15.67
2022-08-07T03:28:56.543Z,14.87
2022-08-07T03:31:24.689Z,15.37
2022-08-07T03:33:53.951Z,15.37
2022-08-07T03:36:19.027Z,14.17
2022-08-07T03:38:42.327Z,15.43
2022-08-07T03:41:07.827Z,15.63
2022-08-07T03:43:33.240Z,16.17
2022-08-07T03:45:59.537Z,16.57
2022-08-07T03:48:23.514Z,19.07
2022-08-07T03:50:52.102Z,15.33
2022-08-07T03:53:20.311Z,15.27
2022-08-07T03:56:04.277Z,15.40
2022-08-07T03:58:33.205Z,11.70
2022-08-07T04:01:15.300Z,14.37
2022-08-07T04:03:53.637Z,17.93
2022-08-07T04:06:37.309Z,15.20
2022-08-07T04:09:01.770Z,14.27
2022-08-07T04:12:24.613Z,13.00
2022-08-07T04:14:10.310Z,13.53
2022-08-07T04:16:58.119Z,13.13
2022-08-07T04:19:25.337Z,12.77
2022-08-07T04:22:13.331Z,12.50
2022-08-07T04:24:41.179Z,16.67
2022-08-07T04:27:06.348Z,15.57
2022-08-07T04:29:58.631Z,17.17
2022-08-07T04:32:47.787Z,16.40
2022-08-07T04:35:13.661Z,18.90
2022-08-07T04:38:00.940Z,17.80
2022-08-07T04:40:21.073Z,17.87
2022-08-07T04:42:43.917Z,19.57
2022-08-07T04:45:13.942Z,19.90
2022-08-07T04:47:58.749Z,21.20
2022-08-07T04:50:36.785Z,21.03
2022-08-07T04:53:27.817Z,19.97
2022-08-07T04:58:10.346Z,19.20
2022-08-07T05:01:40.031Z,17.50
2022-08-07T05:04:12.486Z,18.13
2022-08-07T05:06:53.144Z,18.30
2022-08-07T05:09:42.901Z,20.80
2022-08-07T05:12:08.887Z,20.40
2022-08-07T05:14:56.349Z,21.77
2022-08-07T05:17:50.278Z,19.77
2022-08-07T05:20:09.274Z,23.47
2022-08-07T05:22:36.490Z,26.43
2022-08-07T05:25:00.673Z,27.50
2022-08-07T05:28:02.770Z,29.90
2022-08-07T05:30:09.122Z,28.67
2022-08-07T05:32:33.542Z,28.00
2022-08-07T05:34:57.650Z,27.83
2022-08-07T05:37:25.092Z,28.60
2022-08-07T05:40:17.150Z,28.83
2022-08-07T05:42:40.173Z,27.57
2022-08-07T05:45:14.377Z,27.20
2022-08-07T05:48:02.727Z,24.50
2022-08-07T05:50:34.474Z,22.83
2022-08-07T05:52:57.137Z,25.20
2022-08-07T05:55:20.944Z,25.57
2022-08-07T05:57:46.976Z,21.17
2022-08-07T06:00:16.337Z,23.73
2022-08-07T06:02:49.958Z,24.10
2022-08-07T06:05:15.578Z,21.10
2022-08-07T06:08:29.360Z,21.63
2022-08-07T06:10:25.202Z,22.37
2022-08-07T06:12:48.831Z,20.20
2022-08-07T06:15:16.426Z,19.93
2022-08-07T06:17:52.572Z,21.63
2022-08-07T06:20:31.917Z,18.80
2022-08-07T06:23:46.241Z,17.00
2022-08-07T06:25:54.666Z,17.40
2022-08-07T06:28:27.076Z,21.57
2022-08-07T06:30:53.193Z,18.53
2022-08-07T06:33:17.059Z,17.70
2022-08-07T06:35:48.193Z,18.93
2022-08-07T06:38:25.753Z,16.27
2022-08-07T06:40:56.878Z,18.07
2022-08-07T06:43:23.734Z,18.17
2022-08-07T06:46:11.421Z,17.10
2022-08-07T06:48:34.088Z,14.73
2022-08-07T06:50:59.306Z,15.53
2022-08-07T06:55:28.486Z,15.73
2022-08-07T06:56:17.237Z,17.40
2022-08-07T07:00:14.209Z,13.70
2022-08-07T07:01:25.152Z,14.73
2022-08-07T07:04:08.259Z,14.80
2022-08-07T07:06:39.371Z,13.07
2022-08-07T07:09:23.225Z,13.07
2022-08-07T07:12:19.691Z,11.83
2022-08-07T07:14:52.786Z,12.60
2022-08-07T07:17:19.606Z,12.27
2022-08-07T07:19:57.751Z,10.53
2022-08-07T07:22:36.215Z,9.30
2022-08-07T07:26:31.670Z,8.87
2022-08-07T07:27:58.500Z,7.97
2022-08-07T07:30:38.091Z,7.03
2022-08-07T07:33:04.034Z,7.73
2022-08-07T07:35:27.210Z,7.00
2022-08-07T07:38:02.568Z,7.00
2022-08-07T07:40:27.112Z,6.37
2022-08-07T07:42:54.302Z,7.53
2022-08-07T07:45:19.282Z,6.83
2022-08-07T07:47:52.581Z,6.80
2022-08-07T07:50:33.276Z,6.77
2022-08-07T07:53:00.821Z,5.57
2022-08-07T07:55:24.037Z,5.67
2022-08-07T07:57:52.296Z,4.67
2022-08-07T08:00:29.038Z,5.03
2022-08-07T08:03:05.039Z,5.50
2022-08-07T08:05:30.307Z,5.67
2022-08-07T08:08:34.983Z,5.40
2022-08-07T08:10:54.411Z,4.57
2022-08-07T08:13:19.854Z,5.83
2022-08-07T08:15:58.511Z,6.13
2022-08-07T08:18:25.542Z,5.57
2022-08-07T08:20:49.075Z,6.13
2022-08-07T08:23:30.322Z,5.23
2022-08-07T08:26:21.608Z,5.87
2022-08-07T08:28:46.513Z,6.13
2022-08-07T08:31:15.774Z,5.47
2022-08-07T08:33:41.931Z,4.83
2022-08-07T08:36:12.985Z,5.70
2022-08-07T08:38:41.817Z,5.20
2022-08-07T08:41:14.021Z,5.03
2022-08-07T08:43:50.507Z,6.20
2022-08-07T08:46:34.092Z,4.63
2022-08-07T08:49:10.707Z,4.37
2022-08-07T08:52:13.052Z,3.90
2022-08-07T08:54:27.233Z,3.37
2022-08-07T08:56:52.257Z,6.33
2022-08-07T08:59:23.019Z,3.07
2022-08-07T09:01:59.475Z,3.40
2022-08-07T09:04:30.333Z,2.40
2022-08-07T09:06:58.974Z,2.83
2022-08-07T09:09:36.934Z,5.70
2022-08-07T09:12:30.092Z,2.40
2022-08-07T09:16:22.556Z,2.90
2022-08-07T09:17:59.292Z,2.97
2022-08-07T09:20:35.489Z,3.10
2022-08-07T09:24:32.925Z,2.50
2022-08-07T09:26:00.087Z,2.37
2022-08-07T09:30:01.600Z,2.17
2022-08-07T09:31:38.536Z,2.17
2022-08-07T09:34:12.038Z,2.00
2022-08-07T09:36:37.516Z,2.27
2022-08-07T09:39:54.303Z,2.57
2022-08-07T09:42:16.939Z,1.80
2022-08-07T09:47:25.465Z,2.03
2022-08-07T09:47:55.900Z,2.40
2022-08-07T09:50:33.801Z,2.17
2022-08-07T09:53:01.629Z,1.80
2022-08-07T09:56:03.070Z,1.77
2022-08-07T09:58:53.713Z,3.33
2022-08-07T10:01:51.275Z,2.43
2022-08-07T10:04:32.791Z,1.90
2022-08-07T10:07:24.642Z,3.07
2022-08-07T10:10:11.869Z,2.13
2022-08-07T10:12:56.160Z,1.57
2022-08-07T10:15:44.426Z,1.93
2022-08-07T10:18:26.284Z,3.10
2022-08-07T10:21:14.884Z,2.47
2022-08-07T10:24:33.285Z,1.67
2022-08-07T10:27:11.464Z,1.63
2022-08-07T10:29:53.987Z,2.10
2022-08-07T10:32:51.598Z,3.40
2022-08-07T10:35:25.841Z,33.53
2022-08-07T10:38:21.332Z,3.23
2022-08-07T10:40:51.394Z,2.97
2022-08-07T10:43:19.358Z,1.70
2022-08-07T10:45:59.429Z,1.73
2022-08-07T10:48:35.522Z,1.50
2022-08-07T10:51:03.890Z,1.67
2022-08-07T10:53:44.407Z,1.70
2022-08-07T10:56:31.116Z,3.87
2022-08-07T10:59:07.788Z,2.30
2022-08-07T11:01:51.000Z,19.37
2022-08-07T11:04:34.450Z,2.20
2022-08-07T11:07:06.247Z,2.20
2022-08-07T11:10:08.624Z,26.60
2022-08-07T11:12:39.466Z,2.07
2022-08-07T11:15:17.207Z,2.30
2022-08-07T11:17:47.095Z,1.97
2022-08-07T11:20:18.738Z,1.43
2022-08-07T11:22:46.595Z,1.13
2022-08-07T11:25:14.874Z,1.07
2022-08-07T11:28:03.085Z,1.40
2022-08-07T11:30:41.740Z,1.33
2022-08-07T11:33:14.190Z,1.33
2022-08-07T11:35:59.448Z,1.47
2022-08-07T11:38:31.292Z,1.07
2022-08-07T11:40:59.513Z,1.13
2022-08-07T11:43:29.796Z,1.00
2022-08-07T11:46:17.093Z,1.20
2022-08-07T11:49:50.172Z,3.07
2022-08-07T11:51:51.662Z,2.23
2022-08-07T11:54:39.195Z,1.20
2022-08-07T11:57:15.865Z,1.20
2022-08-07T12:00:11.670Z,1.67
2022-08-07T12:03:44.828Z,2.13
2022-08-07T12:06:37.057Z,1.30
2022-08-07T12:09:05.478Z,1.10
2022-08-07T12:11:43.397Z,1.40
2022-08-07T12:14:26.854Z,1.23
2022-08-07T12:16:56.763Z,1.60
2022-08-07T12:19:35.557Z,1.20
2022-08-07T12:22:37.700Z,1.37
2022-08-07T12:26:02.747Z,2.13
2022-08-07T12:28:12.505Z,1.70
2022-08-07T12:30:40.322Z,0.80
2022-08-07T12:33:18.931Z,1.67
2022-08-07T12:35:58.155Z,2.10
2022-08-07T12:38:38.442Z,1.70
2022-08-07T12:41:05.003Z,1.70
2022-08-07T12:44:02.573Z,4.33
2022-08-07T12:46:32.718Z,1.27
2022-08-07T12:49:10.226Z,1.27
2022-08-07T12:52:14.114Z,0.90
2022-08-07T12:54:41.269Z,1.20
2022-08-07T12:57:09.745Z,1.60
2022-08-07T12:59:53.801Z,1.30
2022-08-07T13:02:49.432Z,1.07
2022-08-07T13:06:02.786Z,2.00
2022-08-07T13:08:42.014Z,2.13
2022-08-07T13:11:24.712Z,0.90
2022-08-07T13:13:58.849Z,0.80
2022-08-07T13:16:30.279Z,1.43
2022-08-07T13:19:02.568Z,1.93
2022-08-07T13:21:37.361Z,1.50
2022-08-07T13:24:21.274Z,1.10
2022-08-07T13:26:54.992Z,1.37
2022-08-07T13:29:24.564Z,1.10
2022-08-07T13:31:57.439Z,1.63
2022-08-07T13:34:35.457Z,1.20
2022-08-07T13:37:10.474Z,1.43
2022-08-07T13:40:33.966Z,2.03
2022-08-07T13:42:25.240Z,1.10
2022-08-07T13:45:11.462Z,1.73
2022-08-07T13:48:06.758Z,1.30
2022-08-07T13:50:32.600Z,1.73
2022-08-07T13:53:00.185Z,1.63
2022-08-07T13:55:25.777Z,1.50
2022-08-07T13:58:01.715Z,1.20
2022-08-07T14:00:35.511Z,1.17
2022-08-07T14:03:14.368Z,1.07
2022-08-07T14:05:53.559Z,1.93
2022-08-07T14:08:19.020Z,0.90
2022-08-07T14:10:43.741Z,3.30
2022-08-07T14:13:06.664Z,1.00
2022-08-07T14:15:35.016Z,0.83
2022-08-07T14:18:23.416Z,1.57
2022-08-07T14:20:54.809Z,1.43
2022-08-07T14:23:31.389Z,0.80
2022-08-07T14:26:28.142Z,0.83
2022-08-07T14:28:57.651Z,0.80
2022-08-07T14:31:25.257Z,1.13
2022-08-07T14:34:07.493Z,0.80
2022-08-07T14:36:34.710Z,0.73
2022-08-07T14:39:02.783Z,1.27
2022-08-07T14:41:34.114Z,0.80
2022-08-07T14:44:15.658Z,0.90
2022-08-07T14:46:56.477Z,1.23
2022-08-07T14:49:58.275Z,1.27
2022-08-07T14:52:12.013Z,1.13
2022-08-07T14:54:43.215Z,2.10
2022-08-07T14:57:08.142Z,2.90
2022-08-07T15:00:05.708Z,1.27
2022-08-07T15:02:32.954Z,4.70
2022-08-07T15:04:58.005Z,1.33
2022-08-07T15:07:24.798Z,1.00
2022-08-07T15:10:11.197Z,1.97
2022-08-07T15:13:11.379Z,1.77
2022-08-07T15:15:26.569Z,2.10
2022-08-07T15:17:55.893Z,0.87
2022-08-07T15:23:20.087Z,1.20
2022-08-07T15:25:56.817Z,2.77
2022-08-07T15:28:34.962Z,1.93
2022-08-07T15:31:06.568Z,1.83
2022-08-07T15:33:33.656Z,1.47
2022-08-07T15:36:01.564Z,3.27
2022-08-07T15:38:31.012Z,1.40
2022-08-07T15:41:24.445Z,1.33
2022-08-07T15:46:32.400Z,1.40
2022-08-07T15:49:14.278Z,1.10
2022-08-07T15:54:21.011Z,1.37
2022-08-07T15:56:46.097Z,1.57
2022-08-07T15:59:16.656Z,1.30
2022-08-07T16:01:42.089Z,1.43
2022-08-07T16:04:06.224Z,1.87
2022-08-07T16:06:40.344Z,1.50
2022-08-07T16:09:07.656Z,1.43
2022-08-07T16:11:58.018Z,1.70
2022-08-07T16:14:37.539Z,3.23
2022-08-07T16:17:14.864Z,2.87
2022-08-07T16:19:59.279Z,1.53
2022-08-07T16:22:55.346Z,1.53
2022-08-07T16:25:54.070Z,2.27
2022-08-07T16:30:07.246Z,1.53
2022-08-07T16:31:51.983Z,2.13
2022-08-07T16:34:18.211Z,4.83
2022-08-07T16:38:03.807Z,2.77
2022-08-07T16:40:03.524Z,2.17
2022-08-07T16:42:40.725Z,1.77
2022-08-07T16:46:33.731Z,1.50
2022-08-07T16:48:30.038Z,1.50
2022-08-07T16:51:54.040Z,1.97
2022-08-07T16:54:33.074Z,2.17
2022-08-07T16:58:01.095Z,1.60
2022-08-07T17:00:13.347Z,2.23
2022-08-07T17:03:06.152Z,1.23
2022-08-07T17:06:19.759Z,2.00
2022-08-07T17:09:04.171Z,2.63
2022-08-07T17:12:01.482Z,2.30
2022-08-07T17:14:19.296Z,2.97
2022-08-07T17:16:55.793Z,4.13
2022-08-07T17:20:00.785Z,2.67
2022-08-07T17:22:12.119Z,2.57
2022-08-07T17:24:56.263Z,1.93
2022-08-07T17:27:23.951Z,1.30
2022-08-07T17:30:14.177Z,4.37
2022-08-07T17:32:53.163Z,3.40
2022-08-07T17:35:50.031Z,2.27
2022-08-07T17:38:34.392Z,1.27
2022-08-07T17:41:02.667Z,2.93
2022-08-07T17:44:02.757Z,2.80
2022-08-07T17:46:36.823Z,2.27
2022-08-07T17:49:09.402Z,2.30
2022-08-07T17:52:00.017Z,4.00
2022-08-07T17:54:29.860Z,2.73
2022-08-07T17:57:18.980Z,1.47
2022-08-07T17:59:45.513Z,3.93
2022-08-07T18:02:15.281Z,4.13
2022-08-07T18:04:48.441Z,1.63
2022-08-07T18:07:34.454Z,1.50
2022-08-07T18:10:05.578Z,2.00
2022-08-07T18:12:42.057Z,7.17
2022-08-07T18:15:09.905Z,3.60
2022-08-07T18:18:46.614Z,2.37
2022-08-07T18:21:09.541Z,2.20
2022-08-07T18:23:42.193Z,4.57
2022-08-07T18:26:05.317Z,3.17
2022-08-07T18:28:58.473Z,1.60
2022-08-07T18:31:38.985Z,3.63
2022-08-07T18:34:37.788Z,2.83
2022-08-07T18:37:15.147Z,3.00
2022-08-07T18:40:18.649Z,2.50
2022-08-07T18:43:06.027Z,2.60
2022-08-07T18:46:24.621Z,7.77
2022-08-07T18:50:03.404Z,3.43
2022-08-07T18:52:35.247Z,4.57
2022-08-07T18:54:27.892Z,3.43
2022-08-07T18:57:29.375Z,5.10
2022-08-07T19:00:04.359Z,4.93
2022-08-07T19:02:52.438Z,4.67
2022-08-07T19:05:27.632Z,5.77
2022-08-07T19:08:18.172Z,5.33
2022-08-07T19:10:52.347Z,4.33
2022-08-07T19:13:22.677Z,3.30
2022-08-07T19:16:03.251Z,6.10
2022-08-07T19:18:35.497Z,4.23
2022-08-07T19:21:09.274Z,3.07
2022-08-07T19:23:58.585Z,2.83
2022-08-07T19:26:28.964Z,4.97
2022-08-07T19:28:59.193Z,3.47
2022-08-07T19:32:08.008Z,3.70
2022-08-07T19:34:34.364Z,3.73
2022-08-07T19:37:10.232Z,3.33
2022-08-07T19:39:57.513Z,5.30
2022-08-07T19:42:25.847Z,3.27
2022-08-07T19:44:55.697Z,4.50
2022-08-07T19:47:27.394Z,3.57
2022-08-07T19:49:57.437Z,3.20
2022-08-07T19:52:28.767Z,4.93
2022-08-07T19:54:56.645Z,3.20
2022-08-07T19:58:00.720Z,2.20
2022-08-07T20:00:10.633Z,3.23
2022-08-07T20:02:39.092Z,3.00
2022-08-07T20:05:07.669Z,2.97
2022-08-07T20:07:47.566Z,3.23
2022-08-07T20:10:35.582Z,4.90
2022-08-07T20:13:01.968Z,3.23
2022-08-07T20:15:37.304Z,3.33
2022-08-07T20:18:03.639Z,1.90
2022-08-07T20:20:27.522Z,3.60
2022-08-07T20:22:55.690Z,3.27
2022-08-07T20:25:20.563Z,2.07
2022-08-07T20:27:47.850Z,2.00
2022-08-07T20:30:22.597Z,4.53
2022-08-07T20:32:48.213Z,4.50
2022-08-07T20:35:16.070Z,3.20
2022-08-07T20:37:58.915Z,2.10
2022-08-07T20:40:32.407Z,2.87
2022-08-07T20:42:57.846Z,3.30
2022-08-07T20:45:33.108Z,3.70
2022-08-07T20:48:08.677Z,4.13
2022-08-07T20:50:31.837Z,4.10
2022-08-07T20:52:54.267Z,3.83
2022-08-07T20:55:23.780Z,2.37
2022-08-07T20:58:00.016Z,2.80
2022-08-07T21:00:38.052Z,3.10
2022-08-07T21:03:07.590Z,3.37
2022-08-07T21:05:51.260Z,3.57
2022-08-07T21:08:28.808Z,2.33
2022-08-07T21:11:02.786Z,1.90
2022-08-07T21:13:57.218Z,3.53
2022-08-07T21:16:10.046Z,2.97
2022-08-07T21:18:40.967Z,2.97
2022-08-07T21:21:05.077Z,3.37
2022-08-07T21:23:49.302Z,2.50
2022-08-07T21:26:22.914Z,4.10
2022-08-07T21:28:51.016Z,2.50
2022-08-07T21:31:31.430Z,2.10
2022-08-07T21:34:13.820Z,2.27
2022-08-07T21:36:50.233Z,4.73
2022-08-07T21:39:46.469Z,3.07
2022-08-07T21:42:37.632Z,3.10
2022-08-07T21:44:58.400Z,4.20
2022-08-07T21:47:26.079Z,2.80
2022-08-07T21:50:02.745Z,3.37
2022-08-07T21:52:35.090Z,3.73
2022-08-07T21:55:06.565Z,3.80
2022-08-07T21:57:44.823Z,2.90
2022-08-07T22:00:22.988Z,2.20
2022-08-07T22:03:03.395Z,3.37
2022-08-07T22:05:45.302Z,3.53
2022-08-07T22:08:12.074Z,3.83
2022-08-07T22:10:37.269Z,2.60
2022-08-07T22:13:09.446Z,3.53
2022-08-07T22:16:43.566Z,2.70
2022-08-07T22:18:26.414Z,3.40
2022-08-07T22:20:54.845Z,3.70
2022-08-07T22:23:23.516Z,5.30
2022-08-07T22:25:55.028Z,2.80
2022-08-07T22:28:32.198Z,3.57
2022-08-07T22:31:05.325Z,2.23
2022-08-07T22:33:52.654Z,3.07
2022-08-07T22:36:27.602Z,3.17
2022-08-07T22:38:54.843Z,3.17
2022-08-07T22:41:21.482Z,2.80
2022-08-07T22:43:56.286Z,2.80
2022-08-07T22:47:05.985Z,4.50
2022-08-07T22:49:56.120Z,3.27
2022-08-07T22:52:39.838Z,3.13
2022-08-07T22:55:39.337Z,4.43
2022-08-07T22:58:39.978Z,2.70
2022-08-07T23:01:49.484Z,3.17
2022-08-07T23:04:58.031Z,2.90
2022-08-07T23:07:47.661Z,2.53
2022-08-07T23:10:38.165Z,3.67
2022-08-07T23:13:49.091Z,2.97
2022-08-07T23:16:44.727Z,2.80
2022-08-07T23:19:48.230Z,3.23
2022-08-07T23:22:27.766Z,2.70
2022-08-07T23:25:09.601Z,4.03
2022-08-07T23:28:21.672Z,3.03
2022-08-07T23:30:43.439Z,3.17
2022-08-07T23:34:35.849Z,4.90
2022-08-07T23:36:29.183Z,3.53
2022-08-07T23:39:08.709Z,3.70
2022-08-07T23:42:04.462Z,4.10
2022-08-07T23:44:41.626Z,3.20
2022-08-07T23:47:18.526Z,2.83
2022-08-07T23:50:19.166Z,2.87
2022-08-07T23:53:05.924Z,3.30
2022-08-07T23:55:47.159Z,2.97
2022-08-07T23:58:30.559Z,5.50
